createdAt,value
2022-09-01T00:00:14.879Z,17.22
2022-09-01T00:10:20.274Z,16.89
2022-09-01T00:20:24.004Z,16.52
2022-09-01T00:30:29.192Z,16.78
2022-09-01T00:40:33.176Z,16.49
2022-09-01T00:50:39.149Z,16.17
2022-09-01T01:00:43.009Z,16.36
2022-09-01T01:10:48.254Z,16.29
2022-09-01T01:21:19.987Z,16.36
2022-09-01T01:31:25.605Z,16.71
2022-09-01T01:41:32.062Z,16.62
2022-09-01T01:51:37.329Z,16.53
2022-09-01T02:01:42.809Z,16.28
2022-09-01T02:11:48.131Z,16.36
2022-09-01T02:21:56.197Z,16.21
2022-09-01T02:32:01.890Z,15.90
2022-09-01T02:42:08.376Z,15.96
2022-09-01T02:52:15.849Z,15.76
2022-09-01T03:02:19.548Z,15.66
2022-09-01T03:12:24.839Z,15.71
2022-09-01T03:22:29.526Z,15.66
2022-09-01T03:32:37.525Z,15.58
2022-09-01T03:42:41.617Z,15.39
2022-09-01T03:52:47.853Z,15.39
2022-09-01T04:02:57.504Z,15.36
2022-09-01T04:13:03.089Z,15.18
2022-09-01T04:23:10.900Z,15.05
2022-09-01T04:33:17.390Z,15.00
2022-09-01T04:43:21.099Z,15.07
2022-09-01T04:53:28.547Z,14.72
2022-09-01T05:03:32.360Z,14.92
2022-09-01T05:13:38.919Z,14.87
2022-09-01T05:23:42.950Z,14.83
2022-09-01T05:33:50.860Z,14.98
2022-09-01T05:44:00.657Z,15.06
2022-09-01T05:54:09.248Z,15.36
2022-09-01T06:04:13.716Z,15.74
2022-09-01T06:14:19.638Z,16.00
2022-09-01T06:24:23.538Z,16.26
2022-09-01T06:34:30.961Z,16.52
2022-09-01T06:44:40.749Z,16.72
2022-09-01T06:54:46.041Z,17.04
2022-09-01T07:04:49.943Z,17.60
2022-09-01T07:25:20.331Z,18.29
2022-09-01T07:35:26.421Z,18.52
2022-09-01T07:45:30.688Z,18.86
2022-09-01T07:55:35.799Z,19.28
2022-09-01T08:05:41.103Z,19.44
2022-09-01T08:26:14.994Z,20.41
2022-09-01T08:36:23.971Z,20.83
2022-09-01T08:46:35.177Z,21.25
2022-09-01T08:56:41.857Z,21.99
2022-09-01T09:06:59.162Z,21.26
2022-09-01T09:17:05.125Z,21.43
2022-09-01T09:27:11.825Z,21.38
2022-09-01T09:37:30.522Z,22.12
2022-09-01T09:47:45.064Z,22.55
2022-09-01T09:57:52.500Z,22.56
2022-09-01T10:07:58.280Z,22.68
2022-09-01T10:18:20.743Z,23.04
2022-09-01T10:28:26.825Z,22.99
2022-09-01T10:38:32.336Z,23.49
2022-09-01T10:48:48.559Z,23.44
2022-09-01T11:09:36.317Z,24.70
2022-09-01T11:19:48.233Z,25.16
2022-09-01T11:29:55.608Z,25.47
2022-09-01T11:40:03.767Z,25.61
2022-09-01T11:50:19.973Z,24.66
2022-09-01T12:00:31.235Z,24.59
2022-09-01T12:10:38.709Z,24.68
2022-09-01T12:20:43.978Z,24.68
2022-09-01T12:30:47.881Z,24.96
2022-09-01T12:40:56.728Z,25.00
2022-09-01T12:51:02.528Z,24.87
2022-09-01T13:01:16.174Z,25.79
2022-09-01T13:11:21.804Z,26.26
2022-09-01T13:21:27.509Z,26.38
2022-09-01T13:31:32.203Z,26.31
2022-09-01T13:41:40.384Z,26.14
2022-09-01T13:51:44.173Z,26.03
2022-09-01T14:01:50.080Z,26.57
2022-09-01T14:11:54.681Z,26.85
2022-09-01T14:21:59.966Z,27.12
2022-09-01T14:32:04.374Z,26.91
2022-09-01T14:42:10.028Z,26.45
2022-09-01T14:52:14.319Z,25.91
2022-09-01T15:02:19.539Z,26.07
2022-09-01T15:12:24.814Z,26.44
2022-09-01T15:22:30.125Z,26.81
2022-09-01T15:32:33.870Z,26.05
2022-09-01T15:42:41.812Z,26.06
2022-09-01T15:52:52.088Z,26.69
2022-09-01T16:03:01.572Z,26.76
2022-09-01T16:13:05.818Z,26.48
2022-09-01T16:23:17.209Z,26.30
2022-09-01T16:33:23.884Z,27.03
2022-09-01T16:43:42.670Z,26.36
2022-09-01T16:54:02.738Z,26.53
2022-09-01T17:04:24.343Z,26.18
2022-09-01T17:14:41.024Z,25.37
2022-09-01T17:24:50.520Z,25.39
2022-09-01T17:35:02.995Z,26.96
2022-09-01T17:45:21.291Z,25.35
2022-09-01T17:55:43.544Z,24.15
2022-09-01T18:06:01.375Z,23.50
2022-09-01T18:16:12.622Z,22.91
2022-09-01T18:26:27.170Z,22.81
2022-09-01T18:36:41.094Z,22.17
2022-09-01T18:46:55.204Z,21.86
2022-09-01T18:57:04.640Z,21.51
2022-09-01T19:07:23.322Z,21.27
2022-09-01T19:17:51.115Z,20.80
2022-09-01T19:28:04.404Z,20.62
2022-09-01T19:38:09.829Z,20.33
2022-09-01T19:48:20.216Z,20.64
2022-09-01T19:58:29.121Z,20.74
2022-09-01T20:08:43.049Z,20.61
2022-09-01T20:18:54.070Z,20.19
2022-09-01T20:29:04.884Z,20.13
2022-09-01T20:39:36.275Z,20.00
2022-09-01T20:49:41.934Z,19.98
2022-09-01T20:59:50.058Z,20.02
2022-09-01T21:10:06.769Z,20.15
2022-09-01T21:20:21.986Z,20.10
2022-09-01T21:30:31.352Z,20.03
2022-09-01T21:40:35.378Z,19.91
2022-09-01T21:50:41.389Z,19.92
2022-09-01T22:00:45.147Z,19.76
2022-09-01T22:10:53.488Z,19.57
2022-09-01T22:21:03.716Z,19.47
2022-09-01T22:31:13.864Z,19.33
2022-09-01T22:41:20.900Z,19.09
2022-09-01T22:51:27.015Z,18.99
2022-09-01T23:01:33.753Z,18.79
2022-09-01T23:11:39.177Z,18.78
2022-09-01T23:21:42.914Z,18.57
2022-09-01T23:31:49.025Z,18.53
2022-09-01T23:41:52.817Z,18.40
2022-09-01T23:51:57.903Z,18.57
